Terminal Aerodrome Forecast
Issued by NWS

Home | Current Version | Previous Version | Text Only | Print | Product List | Glossary On
Versions: 1 2 3 4 5 6 7 8 9 10 11 12 13 14 15 16 17 18 19 20 21 22
000
FTUS41 KCAR 290900 AAB
TAFBHB
TAF AMD
KBHB 290906Z 2909/3006 19011KT 5SM BR OVC003
      TEMPO 2909/2912 1SM BR BKN002
     FM291300 23009KT P6SM BKN015
     FM291400 23009KT P6SM SCT030
     FM291700 24009KT P6SM SCT150
     FM300300 21005KT P6SM FEW040
      AMD LTD TO CLD VIS AND WIND=

USA.gov is the U.S. government's official web portal to all federal, state and local government web resources and services.